Time;durP1;ratioP1;P1;durP2;ratioP2;P2;SDS_P1;SDS_P2;PMS_P1;PMS_P2;Temp;Humidity;BMP_temperature;BMP_pressure;BME280_temperature;BME280_humidity;BME280_pressure;Samples;Min_cycle;Max_cycle;Signal;HPM_P1;HPM_P2
2022/06/15 00:01:12;;;;;;;1.08;0.70;;;;;;;27.17;43.21;99160.81;5133161;27;20131;-57
2022/06/15 00:03:38;;;;;;;1.13;0.82;;;;;;;27.16;43.20;99160.03;5115727;27;20062;-57
2022/06/15 00:06:14;;;;;;;0.80;0.60;;;;;;;27.19;43.14;99173.22;5137954;27;20120;-56
2022/06/15 00:08:42;;;;;;;0.80;0.68;;;;;;;27.22;43.27;99175.19;5121840;27;20038;-56
2022/06/15 00:11:11;;;;;;;0.95;0.73;;;;;;;27.25;42.96;99165.09;5126298;27;20050;-56
2022/06/15 00:13:37;;;;;;;1.08;0.70;;;;;;;27.26;43.17;99167.47;5125568;27;20056;-57
2022/06/15 00:16:04;;;;;;;1.50;0.90;;;;;;;27.28;43.38;99165.03;5137977;27;20365;-57
2022/06/15 00:18:30;;;;;;;0.95;0.70;;;;;;;27.25;43.12;99170.72;5135273;27;20491;-58
2022/06/15 00:20:57;;;;;;;0.90;0.73;;;;;;;27.27;43.35;99168.28;5119749;27;20131;-58
2022/06/15 00:23:23;;;;;;;0.93;0.80;;;;;;;27.26;43.46;99173.09;5134291;27;20419;-58
2022/06/15 00:25:52;;;;;;;0.93;0.70;;;;;;;27.24;43.47;99175.53;5135711;27;20126;-58
2022/06/15 00:28:19;;;;;;;1.30;0.90;;;;;;;27.25;43.55;99179.16;5124185;27;20046;-58
2022/06/15 00:30:46;;;;;;;0.80;0.70;;;;;;;27.26;43.33;99175.13;5134273;27;20045;-58
2022/06/15 00:33:12;;;;;;;1.20;0.80;;;;;;;27.25;43.42;99184.75;5125863;27;20048;-58
2022/06/15 00:35:38;;;;;;;1.17;0.80;;;;;;;27.23;43.75;99188.00;5130359;27;20051;-58
2022/06/15 00:38:04;;;;;;;1.10;0.75;;;;;;;27.23;43.70;99192.81;5142871;27;20063;-58
2022/06/15 00:40:30;;;;;;;1.27;0.88;;;;;;;27.21;43.56;99179.19;5134069;27;20086;-58
2022/06/15 00:42:55;;;;;;;0.95;0.70;;;;;;;27.24;43.80;99192.38;5131016;27;20547;-56
2022/06/15 00:45:20;;;;;;;0.90;0.70;;;;;;;27.21;43.81;99190.41;5132582;27;20146;-56
2022/06/15 00:47:46;;;;;;;0.80;0.70;;;;;;;27.23;44.08;99188.00;5127654;27;20043;-56
2022/06/15 00:50:24;;;;;;;0.85;0.70;;;;;;;27.23;43.87;99193.63;5142189;27;20043;-56
2022/06/15 00:53:07;;;;;;;1.15;0.90;;;;;;;27.24;44.19;99195.19;5142638;27;20051;-57
2022/06/15 00:55:34;;;;;;;0.90;0.80;;;;;;;27.23;44.23;99198.44;5130697;27;20039;-58
2022/06/15 00:58:03;;;;;;;1.42;0.98;;;;;;;27.22;43.92;99196.81;5130217;27;20134;-57
2022/06/15 01:00:29;;;;;;;1.30;0.80;;;;;;;27.21;43.97;99189.63;5131661;27;20332;-57
2022/06/15 01:02:55;;;;;;;1.20;0.80;;;;;;;27.22;44.02;99194.84;5124634;27;20045;-57
2022/06/15 01:05:44;;;;;;;1.30;0.80;;;;;;;27.21;44.21;99198.84;5138561;27;20110;-57
2022/06/15 01:08:12;;;;;;;2.53;0.90;;;;;;;27.22;44.10;99194.00;5138719;27;20047;-57
2022/06/15 01:11:11;;;;;;;1.65;0.90;;;;;;;27.19;44.13;99195.66;5133435;27;20070;-58
2022/06/15 01:14:05;;;;;;;1.20;0.93;;;;;;;27.23;44.35;99195.63;5144420;27;20443;-57
2022/06/15 01:16:39;;;;;;;1.15;0.90;;;;;;;27.18;44.34;99199.69;5137783;27;20512;-57
2022/06/15 01:19:10;;;;;;;0.85;0.68;;;;;;;27.19;44.33;99215.31;5134992;27;20058;-56
2022/06/15 01:21:44;;;;;;;1.27;0.80;;;;;;;27.18;44.20;99218.56;5119596;27;20047;-57
2022/06/15 01:24:40;;;;;;;1.42;0.93;;;;;;;27.17;44.33;99220.59;5133972;27;20049;-57
2022/06/15 01:27:28;;;;;;;1.30;0.82;;;;;;;27.18;44.64;99216.56;5116945;27;20118;-57
2022/06/15 01:30:20;;;;;;;1.60;0.77;;;;;;;27.17;44.21;99217.78;5129302;27;20475;-58
2022/06/15 01:33:04;;;;;;;1.33;0.93;;;;;;;27.19;44.53;99208.91;5092973;27;20137;-58
2022/06/15 01:35:45;;;;;;;1.40;0.90;;;;;;;27.14;44.49;99201.75;5125613;27;20081;-58
2022/06/15 01:38:21;;;;;;;1.35;0.80;;;;;;;27.13;44.72;99215.00;5128271;27;20035;-58
2022/06/15 01:41:26;;;;;;;1.00;0.80;;;;;;;27.13;44.42;99205.78;5129758;27;20426;-58
2022/06/15 01:43:57;;;;;;;1.65;1.10;;;;;;;27.15;44.20;99212.59;5128143;27;20422;-58
2022/06/15 01:46:24;;;;;;;1.63;1.00;;;;;;;27.12;44.41;99209.81;5129795;27;20043;-57
2022/06/15 01:48:53;;;;;;;1.77;1.10;;;;;;;27.13;44.47;99206.56;5129029;27;20096;-58
2022/06/15 01:51:24;;;;;;;2.00;1.30;;;;;;;27.09;44.24;99205.84;5129373;27;20051;-58
2022/06/15 01:54:01;;;;;;;1.70;1.20;;;;;;;27.12;44.27;99204.19;5129182;27;20414;-58
2022/06/15 01:56:33;;;;;;;1.67;1.00;;;;;;;27.12;44.41;99204.19;5118269;27;20103;-57
2022/06/15 01:59:09;;;;;;;2.00;1.30;;;;;;;27.12;44.46;99198.59;5127198;27;20049;-58
2022/06/15 02:02:01;;;;;;;2.67;1.38;;;;;;;27.12;44.22;99205.00;5118658;27;20082;-57
2022/06/15 02:04:31;;;;;;;1.60;1.10;;;;;;;27.10;44.46;99201.81;5126149;27;20043;-57
2022/06/15 02:07:05;;;;;;;1.92;1.20;;;;;;;27.10;44.04;99206.66;5129371;27;20107;-57
2022/06/15 02:09:54;;;;;;;2.00;1.20;;;;;;;27.11;44.20;99211.03;5130066;27;20130;-57
2022/06/15 02:12:33;;;;;;;2.15;1.40;;;;;;;27.12;44.12;99212.63;5104823;28;20056;-57
2022/06/15 02:15:02;;;;;;;2.90;1.50;;;;;;;27.10;44.05;99213.06;5096026;28;20530;-57
2022/06/15 02:17:37;;;;;;;2.70;1.83;;;;;;;27.08;44.20;99211.91;5107629;28;20132;-57
2022/06/15 02:20:17;;;;;;;2.15;1.30;;;;;;;27.07;44.23;99211.06;5108588;28;20101;-57
2022/06/15 02:22:45;;;;;;;1.73;1.15;;;;;;;27.08;44.29;99204.25;5099009;28;20040;-57
2022/06/15 02:25:15;;;;;;;2.08;1.35;;;;;;;27.09;44.25;99213.47;5107900;28;20436;-57
2022/06/15 02:27:43;;;;;;;1.77;1.13;;;;;;;27.09;44.09;99219.09;5105120;28;20523;-57
2022/06/15 02:30:19;;;;;;;2.08;1.35;;;;;;;27.08;43.88;99218.31;5108753;28;20096;-57
2022/06/15 02:32:49;;;;;;;2.15;1.40;;;;;;;27.07;44.02;99205.44;5105853;28;20085;-57
2022/06/15 02:35:17;;;;;;;2.63;1.50;;;;;;;27.09;44.26;99217.09;5112316;28;20040;-58
2022/06/15 02:37:44;;;;;;;2.47;1.63;;;;;;;27.08;43.93;99215.50;5111990;28;20054;-57
2022/06/15 02:40:14;;;;;;;2.70;1.88;;;;;;;27.07;44.06;99215.88;5108095;28;20036;-57
2022/06/15 02:42:40;;;;;;;3.13;1.70;;;;;;;27.08;44.26;99203.47;5108956;28;20035;-57
2022/06/15 02:45:14;;;;;;;2.20;1.45;;;;;;;27.08;44.11;99211.91;5111699;28;20122;-57
2022/06/15 02:47:42;;;;;;;3.40;1.80;;;;;;;27.08;44.14;99211.91;5108643;28;20044;-56
2022/06/15 02:50:13;;;;;;;2.33;1.50;;;;;;;27.07;43.99;99210.28;5110350;28;20495;-56
2022/06/15 02:52:43;;;;;;;2.60;1.70;;;;;;;27.06;44.19;99208.69;5111905;28;20039;-56
2022/06/15 02:55:11;;;;;;;2.67;1.88;;;;;;;27.05;44.31;99209.91;5108839;28;20523;-56
2022/06/15 02:57:52;;;;;;;5.05;1.70;;;;;;;27.05;44.30;99209.91;5111694;28;20035;-57
2022/06/15 03:00:20;;;;;;;2.40;1.50;;;;;;;27.06;44.14;99203.06;5112309;28;20537;-57
2022/06/15 03:02:46;;;;;;;2.47;1.40;;;;;;;27.04;44.11;99203.50;5112065;28;20043;-57
2022/06/15 03:05:12;;;;;;;2.63;1.60;;;;;;;27.05;43.92;99207.91;5112145;28;20108;-57
2022/06/15 03:07:37;;;;;;;2.53;1.58;;;;;;;27.02;43.70;99211.53;5104609;28;20101;-58
2022/06/15 03:10:03;;;;;;;2.50;1.52;;;;;;;27.05;43.98;99218.34;5111800;28;20138;-57
2022/06/15 03:12:28;;;;;;;1.70;1.13;;;;;;;27.02;44.09;99211.53;5110798;28;20127;-57
2022/06/15 03:14:54;;;;;;;2.47;1.50;;;;;;;27.04;43.98;99213.91;5111947;28;20323;-58
2022/06/15 03:17:19;;;;;;;2.22;1.40;;;;;;;27.02;44.16;99217.16;5103449;28;20381;-57
2022/06/15 03:19:45;;;;;;;2.28;1.40;;;;;;;27.06;43.97;99219.91;5108653;28;20534;-57
2022/06/15 03:22:10;;;;;;;2.10;1.40;;;;;;;27.03;43.90;99220.75;5102335;28;20034;-57
2022/06/15 03:24:36;;;;;;;2.63;1.38;;;;;;;27.01;43.95;99226.78;5111295;28;20073;-57
2022/06/15 03:27:03;;;;;;;1.83;1.23;;;;;;;27.01;43.80;99220.38;5111130;28;20024;-57
2022/06/15 03:29:30;;;;;;;1.90;1.20;;;;;;;27.01;43.84;99232.41;5103986;28;20082;-57
2022/06/15 03:31:56;;;;;;;2.15;1.40;;;;;;;26.99;44.10;99229.19;5111218;28;20112;-57
2022/06/15 03:34:21;;;;;;;2.25;1.40;;;;;;;27.00;43.90;99235.59;5110996;28;20461;-57
2022/06/15 03:36:46;;;;;;;2.40;1.40;;;;;;;27.00;44.00;99235.59;5110997;28;20035;-58
2022/06/15 03:39:12;;;;;;;2.42;1.40;;;;;;;27.00;43.95;99224.38;5110823;28;20044;-57
2022/06/15 03:41:37;;;;;;;2.00;1.20;;;;;;;27.01;44.08;99231.63;5111091;28;20040;-58
2022/06/15 03:44:03;;;;;;;1.95;1.20;;;;;;;26.99;44.13;99226.41;5110486;28;20767;-59
2022/06/15 03:46:29;;;;;;;2.08;1.20;;;;;;;27.00;44.15;99230.00;5109953;28;20090;-58
2022/06/15 03:48:55;;;;;;;3.55;1.60;;;;;;;26.99;43.95;99226.41;5111099;28;20416;-58
2022/06/15 03:51:20;;;;;;;2.20;1.30;;;;;;;26.99;44.13;99226.41;5111450;28;20108;-59
2022/06/15 03:53:46;;;;;;;2.25;1.38;;;;;;;26.98;44.22;99224.03;5110993;28;20052;-58
2022/06/15 03:56:11;;;;;;;1.70;1.13;;;;;;;26.99;44.01;99222.78;5110301;28;20093;-57
2022/06/15 03:58:37;;;;;;;2.38;1.48;;;;;;;27.01;44.10;99231.63;5110859;28;20047;-58
2022/06/15 04:01:02;;;;;;;1.98;1.17;;;;;;;27.01;43.80;99234.41;5110489;28;20108;-58
2022/06/15 04:03:28;;;;;;;1.85;1.10;;;;;;;26.99;44.09;99237.63;5110848;28;20394;-58
2022/06/15 04:05:56;;;;;;;1.98;1.10;;;;;;;27.00;44.07;99232.81;5110719;28;20043;-58
2022/06/15 04:08:34;;;;;;;1.92;1.30;;;;;;;26.99;44.19;99228.41;5110582;28;20036;-58
2022/06/15 04:11:01;;;;;;;1.95;1.25;;;;;;;27.00;43.85;99230.00;5102850;28;20055;-58
2022/06/15 04:13:27;;;;;;;2.10;1.40;;;;;;;27.00;44.10;99230.00;5109959;28;20100;-57
2022/06/15 04:15:52;;;;;;;2.22;1.40;;;;;;;26.99;44.07;99225.59;5110690;28;20453;-57
2022/06/15 04:18:18;;;;;;;2.50;1.52;;;;;;;26.97;44.20;99222.44;5111295;28;20078;-58
2022/06/15 04:20:43;;;;;;;2.10;1.40;;;;;;;26.99;43.94;99222.78;5109697;28;20067;-58
2022/06/15 04:23:12;;;;;;;1.90;1.35;;;;;;;26.97;44.28;99219.63;5110243;28;20073;-60
2022/06/15 04:25:41;;;;;;;2.60;1.30;;;;;;;26.97;44.13;99214.81;5110692;28;20043;-59
2022/06/15 04:28:10;;;;;;;2.45;1.25;;;;;;;26.97;44.21;99217.59;5110083;28;20039;-59
2022/06/15 04:30:35;;;;;;;1.98;1.20;;;;;;;26.97;44.05;99220.41;5110905;28;20475;-56
2022/06/15 04:33:01;;;;;;;2.55;1.42;;;;;;;26.98;44.10;99215.59;5104649;28;20531;-56
2022/06/15 04:35:27;;;;;;;2.60;1.50;;;;;;;26.97;44.31;99211.19;5107681;28;20067;-58
2022/06/15 04:37:52;;;;;;;2.25;1.20;;;;;;;26.95;44.29;99217.25;5108211;28;20096;-58
2022/06/15 04:40:18;;;;;;;2.30;1.50;;;;;;;26.97;44.05;99208.41;5109993;28;20032;-58
2022/06/15 04:42:47;;;;;;;2.33;1.40;;;;;;;26.94;44.07;99215.66;5109989;28;20044;-58
2022/06/15 04:45:14;;;;;;;2.55;1.63;;;;;;;26.95;44.46;99210.84;5109597;28;20055;-57
2022/06/15 04:47:40;;;;;;;2.63;1.65;;;;;;;26.94;44.38;99206.44;5110001;28;20031;-57
2022/06/15 04:50:07;;;;;;;2.22;1.50;;;;;;;26.95;44.55;99208.03;5110246;28;20431;-57
2022/06/15 04:52:33;;;;;;;2.60;1.42;;;;;;;26.95;44.52;99214.44;5109037;28;20510;-59
2022/06/15 04:54:59;;;;;;;2.50;1.75;;;;;;;26.94;44.84;99201.63;5109114;28;20047;-60
2022/06/15 04:57:24;;;;;;;2.17;1.40;;;;;;;26.94;44.54;99196.00;5110073;28;20386;-58
2022/06/15 04:59:50;;;;;;;2.45;1.50;;;;;;;26.97;44.78;99205.59;5108655;28;20035;-57
2022/06/15 05:02:15;;;;;;;2.38;1.52;;;;;;;26.97;44.97;99194.38;5108158;28;20043;-57
2022/06/15 05:04:42;;;;;;;2.28;1.50;;;;;;;26.99;44.57;99206.75;5108865;28;20044;-58
2022/06/15 05:07:08;;;;;;;2.30;1.40;;;;;;;27.00;44.83;99201.94;5109037;28;20043;-58
2022/06/15 05:09:33;;;;;;;2.50;1.50;;;;;;;26.99;44.61;99200.34;5109150;28;20052;-57
2022/06/15 05:11:59;;;;;;;3.60;1.80;;;;;;;26.96;45.31;99201.19;5107409;28;20047;-57
2022/06/15 05:14:25;;;;;;;2.15;1.48;;;;;;;26.84;45.36;99196.94;5110543;28;20173;-58
2022/06/15 05:16:51;;;;;;;3.22;1.95;;;;;;;26.84;45.20;99205.34;5110112;28;20110;-57
2022/06/15 05:19:16;;;;;;;3.05;1.60;;;;;;;26.83;45.51;99209.38;5109632;28;20054;-59
2022/06/15 05:21:44;;;;;;;3.28;1.85;;;;;;;26.82;45.61;99219.03;5109666;28;20047;-58
2022/06/15 05:24:10;;;;;;;2.53;1.55;;;;;;;26.80;45.55;99216.63;5104150;28;20101;-58
2022/06/15 05:26:35;;;;;;;2.13;1.50;;;;;;;26.79;45.66;99214.22;5104289;28;20044;-58
2022/06/15 05:29:01;;;;;;;3.33;1.88;;;;;;;26.75;46.07;99205.09;5110156;28;20054;-58
2022/06/15 05:31:27;;;;;;;2.45;1.67;;;;;;;26.75;46.05;99219.13;5109805;28;20047;-58
2022/06/15 05:33:54;;;;;;;2.95;1.80;;;;;;;26.75;46.04;99217.09;5109662;28;20621;-58
2022/06/15 05:36:27;;;;;;;2.78;1.80;;;;;;;26.75;45.90;99208.69;5109688;28;20146;-57
2022/06/15 05:38:52;;;;;;;2.85;1.60;;;;;;;26.76;45.87;99209.47;5109164;28;20047;-59
2022/06/15 05:41:18;;;;;;;2.75;1.73;;;;;;;26.82;46.14;99208.59;5109507;28;20031;-58
2022/06/15 05:43:53;;;;;;;20.30;2.72;;;;;;;26.91;46.42;99205.25;5108488;28;20680;-58
2022/06/15 05:46:26;;;;;;;18.45;2.72;;;;;;;26.84;46.60;99205.34;5109966;28;20051;-58
2022/06/15 05:48:54;;;;;;;19.13;2.28;;;;;;;26.81;46.54;99198.59;5106694;28;20096;-59
2022/06/15 05:51:20;;;;;;;18.65;2.72;;;;;;;26.81;46.27;99209.00;5109339;28;20071;-58
2022/06/15 05:53:46;;;;;;;12.32;2.60;;;;;;;26.80;46.55;99210.22;5109765;28;20059;-58
2022/06/15 05:56:11;;;;;;;22.25;2.60;;;;;;;26.80;46.30;99211.03;5108649;28;20074;-58
2022/06/15 05:58:37;;;;;;;15.35;2.80;;;;;;;26.80;46.70;99208.22;5108928;28;20032;-58
2022/06/15 06:01:10;;;;;;;12.88;2.63;;;;;;;26.80;46.78;99213.03;5109285;28;20089;-58
2022/06/15 06:03:37;;;;;;;9.73;2.92;;;;;;;27.07;46.71;99207.47;5108433;28;20442;-58
2022/06/15 06:06:03;;;;;;;16.13;2.67;;;;;;;27.17;46.62;99205.75;5108604;28;20491;-58
2022/06/15 06:08:30;;;;;;;8.82;2.35;;;;;;;27.15;46.62;99203.38;5109091;28;20047;-58
2022/06/15 06:10:55;;;;;;;12.82;2.38;;;;;;;27.14;46.89;99208.16;5104817;28;20044;-58
2022/06/15 06:13:21;;;;;;;9.52;2.25;;;;;;;27.16;47.10;99210.56;5108536;28;20046;-59
2022/06/15 06:15:46;;;;;;;10.40;2.35;;;;;;;27.17;47.19;99217.78;5108980;28;20130;-59
2022/06/15 06:18:12;;;;;;;12.95;2.42;;;;;;;27.18;46.99;99218.56;5108595;28;20036;-57
2022/06/15 06:20:37;;;;;;;6.13;2.00;;;;;;;27.16;46.93;99216.19;5108980;28;20126;-59
2022/06/15 06:23:02;;;;;;;5.55;1.85;;;;;;;27.20;46.83;99227.34;5109161;28;20406;-57
2022/06/15 06:25:29;;;;;;;4.72;1.95;;;;;;;27.21;46.81;99223.31;5108243;28;20384;-57
2022/06/15 06:27:54;;;;;;;5.47;1.77;;;;;;;27.20;46.67;99224.53;5103769;28;20043;-59
2022/06/15 06:30:21;;;;;;;6.15;2.00;;;;;;;27.26;46.73;99228.47;5108852;28;20059;-57
2022/06/15 06:32:50;;;;;;;4.97;2.13;;;;;;;27.26;46.64;99236.91;5108349;28;20133;-57
2022/06/15 06:35:15;;;;;;;4.85;1.90;;;;;;;27.27;46.44;99232.88;5108738;28;20135;-57
2022/06/15 06:37:41;;;;;;;3.20;1.80;;;;;;;27.27;46.32;99228.03;5098927;28;20513;-57
2022/06/15 06:40:12;;;;;;;3.55;1.85;;;;;;;27.27;46.44;99232.88;5104789;28;20081;-56
2022/06/15 06:42:38;;;;;;;3.95;1.90;;;;;;;27.28;46.31;99240.06;5107378;28;20055;-56
2022/06/15 06:45:04;;;;;;;5.55;2.40;;;;;;;27.29;46.31;99241.66;5102921;28;20040;-56
2022/06/15 06:47:33;;;;;;;4.95;2.70;;;;;;;27.22;46.32;99247.38;5104381;28;20052;-56
2022/06/15 06:49:59;;;;;;;7.15;3.33;;;;;;;27.18;46.27;99250.25;5102010;28;20786;-56
2022/06/15 06:52:24;;;;;;;7.50;3.30;;;;;;;27.18;46.06;99263.50;5103119;28;20130;-56
2022/06/15 06:54:49;;;;;;;8.23;3.65;;;;;;;27.16;45.93;99269.53;5105876;28;20036;-56
2022/06/15 06:57:15;;;;;;;8.82;5.22;;;;;;;27.10;46.30;99269.19;5104167;28;20048;-57
2022/06/15 06:59:45;;;;;;;9.23;5.00;;;;;;;27.10;46.50;99277.63;5097344;28;20044;-57
2022/06/15 07:02:10;;;;;;;14.60;9.18;;;;;;;27.11;46.24;99278.41;5101422;28;20062;-56
2022/06/15 07:04:36;;;;;;;13.20;7.85;;;;;;;27.09;45.98;99281.66;5095145;28;20044;-56
2022/06/15 07:07:02;;;;;;;11.55;6.50;;;;;;;27.07;46.14;99274.84;5105898;28;20043;-57
2022/06/15 07:09:29;;;;;;;10.57;5.30;;;;;;;27.07;46.71;99280.47;5107439;28;20043;-56
2022/06/15 07:11:57;;;;;;;9.75;4.75;;;;;;;27.08;46.60;99277.25;5106649;28;20048;-57
2022/06/15 07:14:22;;;;;;;10.13;3.97;;;;;;;27.12;46.63;99288.44;5101087;28;20047;-56
2022/06/15 07:16:49;;;;;;;6.75;3.78;;;;;;;27.13;46.70;99285.19;5096565;28;20058;-57
2022/06/15 07:19:15;;;;;;;10.75;4.10;;;;;;;27.17;47.06;99290.78;5102227;28;20146;-53
2022/06/15 07:21:41;;;;;;;10.15;3.78;;;;;;;27.12;48.02;99280.00;5105626;28;20043;-57
2022/06/15 07:24:08;;;;;;;9.40;3.58;;;;;;;27.09;47.82;99289.28;5105511;28;20046;-58
2022/06/15 07:26:44;;;;;;;11.13;3.90;;;;;;;27.07;48.10;99286.06;5102753;28;20063;-58
2022/06/15 07:29:13;;;;;;;8.63;3.80;;;;;;;27.11;48.08;99279.22;5103539;28;20541;-56
2022/06/15 07:31:45;;;;;;;7.68;3.58;;;;;;;27.14;47.32;99269.13;5102094;28;20054;-57
2022/06/15 07:34:11;;;;;;;7.47;3.65;;;;;;;27.16;46.70;99263.91;5107795;28;20040;-58
2022/06/15 07:36:39;;;;;;;9.63;3.67;;;;;;;27.19;46.58;99260.25;5105906;28;20047;-58
2022/06/15 07:39:05;;;;;;;9.13;3.70;;;;;;;27.23;46.16;99275.06;5103769;28;20063;-58
2022/06/15 07:41:31;;;;;;;6.75;3.17;;;;;;;27.23;46.58;99288.31;5106260;28;20143;-58
2022/06/15 07:43:56;;;;;;;6.28;3.40;;;;;;;27.21;46.61;99280.28;5099627;28;20627;-59
2022/06/15 07:46:23;;;;;;;12.10;3.40;;;;;;;27.21;46.65;99280.28;5094817;28;20040;-57
2022/06/15 07:51:38;;;;;;;7.65;3.08;;;;;;;27.25;46.00;99285.84;5103605;28;20093;-55
2022/06/15 07:54:08;;;;;;;7.65;3.42;;;;;;;27.28;45.74;99285.00;5098459;28;20054;-57
2022/06/15 07:56:34;;;;;;;9.07;3.50;;;;;;;27.29;45.50;99290.22;5100834;28;20519;-58
2022/06/15 07:59:00;;;;;;;9.30;3.67;;;;;;;27.29;45.80;99292.22;5100883;28;20040;-58
2022/06/15 08:01:25;;;;;;;11.15;3.80;;;;;;;27.31;46.17;99290.59;5106239;28;20559;-58
2022/06/15 08:03:51;;;;;;;11.07;3.45;;;;;;;27.33;46.63;99293.75;5098263;28;20085;-57
2022/06/15 08:06:17;;;;;;;6.78;3.00;;;;;;;27.33;46.40;99296.56;5099658;28;20108;-57
2022/06/15 08:08:47;;;;;;;17.77;3.60;;;;;;;27.35;47.21;99290.53;5098423;28;20044;-57
2022/06/15 08:11:14;;;;;;;14.93;3.03;;;;;;;27.38;46.78;99287.69;5115846;28;20056;-57
2022/06/15 08:13:41;;;;;;;15.52;3.50;;;;;;;27.44;46.52;99282.38;5099390;28;20039;-57
2022/06/15 08:16:08;;;;;;;11.70;2.90;;;;;;;27.41;46.98;99291.63;5095576;28;20518;-58
2022/06/15 08:18:40;;;;;;;7.50;3.28;;;;;;;27.44;46.81;99293.63;5097970;28;20331;-58
2022/06/15 08:21:16;;;;;;;8.55;3.42;;;;;;;27.43;47.06;99298.44;5103253;28;20044;-58
2022/06/15 08:23:45;;;;;;;9.80;3.05;;;;;;;27.40;46.88;99310.50;5105318;28;20126;-58
2022/06/15 08:26:16;;;;;;;9.07;3.10;;;;;;;27.40;47.21;99302.09;5099584;28;20044;-58
2022/06/15 08:28:44;;;;;;;10.90;2.75;;;;;;;27.41;47.07;99300.06;5097804;28;20044;-56
2022/06/15 08:31:11;;;;;;;8.07;2.70;;;;;;;27.48;47.38;99302.78;5098946;28;20603;-56
2022/06/15 08:33:37;;;;;;;6.82;3.08;;;;;;;27.50;47.38;99314.38;5100836;28;20406;-57
2022/06/15 08:36:03;;;;;;;13.18;3.00;;;;;;;27.53;47.02;99307.94;5093466;28;20040;-58
2022/06/15 08:38:29;;;;;;;7.97;3.00;;;;;;;27.59;46.97;99305.44;5100106;28;20107;-58
2022/06/15 08:41:03;;;;;;;8.15;3.20;;;;;;;27.61;47.04;99317.03;5099073;28;20047;-56
2022/06/15 08:43:31;;;;;;;8.55;2.78;;;;;;;27.56;47.07;99329.53;5097904;28;20043;-57
2022/06/15 08:46:39;;;;;;;7.07;2.88;;;;;;;27.49;46.86;99340.88;5096275;28;20065;-56
2022/06/15 08:49:35;;;;;;;7.28;3.05;;;;;;;27.52;46.58;99316.78;5095839;28;20067;-57
2022/06/15 08:52:27;;;;;;;11.20;3.05;;;;;;;27.53;46.23;99302.31;5101798;28;20058;-57
2022/06/15 08:55:04;;;;;;;7.85;3.35;;;;;;;27.56;46.05;99289.41;5096019;28;20063;-57
2022/06/15 08:57:45;;;;;;;8.43;2.97;;;;;;;27.53;46.44;99279.03;5116934;28;20583;-57
2022/06/15 09:00:37;;;;;;;7.95;3.17;;;;;;;27.55;46.73;99297.06;5103809;28;20127;-58
2022/06/15 09:03:34;;;;;;;11.43;7.35;;;;;;;27.58;46.16;99320.72;5100174;28;20104;-57
2022/06/15 09:06:21;;;;;;;18.92;9.05;;;;;;;27.57;46.02;99310.66;5049121;28;20051;-57
2022/06/15 09:08:58;;;;;;;12.73;6.93;;;;;;;27.54;46.19;99319.97;5088392;28;20475;-56
2022/06/15 09:11:50;;;;;;;16.20;7.90;;;;;;;27.53;46.43;99318.38;5086480;28;20051;-57
2022/06/15 09:14:22;;;;;;;29.23;20.88;;;;;;;27.59;46.61;99325.91;5082519;28;20043;-57
2022/06/15 09:17:16;;;;;;;26.02;18.48;;;;;;;27.63;46.42;99329.44;5091813;28;20052;-57
2022/06/15 09:20:05;;;;;;;25.27;16.67;;;;;;;27.67;46.14;99326.59;5090078;28;20105;-58
2022/06/15 09:22:47;;;;;;;22.08;13.25;;;;;;;27.69;45.90;99327.00;5087576;28;20050;-56
2022/06/15 09:25:27;;;;;;;13.47;9.23;;;;;;;27.72;45.37;99331.78;5087938;28;20055;-57
2022/06/15 09:27:59;;;;;;;17.95;7.50;;;;;;;27.73;44.97;99321.34;5089083;28;20305;-55
2022/06/15 09:30:31;;;;;;;12.32;6.00;;;;;;;27.69;45.11;99310.13;5090952;28;20069;-57
2022/06/15 09:33:09;;;;;;;13.53;5.17;;;;;;;27.68;45.61;99316.97;5085885;28;20662;-57
2022/06/15 09:35:46;;;;;;;8.60;4.30;;;;;;;27.66;46.00;99320.19;5087087;28;20143;-56
2022/06/15 09:38:14;;;;;;;8.50;4.13;;;;;;;27.68;45.88;99325.41;5089757;28;20044;-58
2022/06/15 09:41:15;;;;;;;13.85;4.00;;;;;;;27.63;46.30;99306.16;5085392;28;20054;-58
2022/06/15 09:43:57;;;;;;;19.52;4.10;;;;;;;27.57;46.57;99296.63;5032425;28;20067;-57
2022/06/15 09:46:28;;;;;;;14.77;4.22;;;;;;;27.58;46.60;99306.66;5030569;28;20049;-57
2022/06/15 09:49:21;;;;;;;12.37;3.60;;;;;;;27.60;46.40;99298.59;5031036;28;20056;-56
2022/06/15 09:52:07;;;;;;;;;;;;;;;27.68;46.23;99291.69;5030851;28;20140;-58
2022/06/15 09:55:06;;;;;;;10.32;3.63;;;;;;;27.62;46.61;99290.53;5026538;28;20022;-57
2022/06/15 09:57:32;;;;;;;10.18;3.17;;;;;;;27.62;46.91;99307.41;5033083;28;20061;-57
2022/06/15 09:59:59;;;;;;;12.57;3.60;;;;;;;27.63;46.63;99317.41;5031231;28;20106;-59
2022/06/15 10:02:35;;;;;;;14.02;3.80;;;;;;;27.66;46.56;99302.53;5030761;28;20512;-56
2022/06/15 10:05:04;;;;;;;14.68;4.10;;;;;;;27.69;46.48;99298.88;5024009;28;20033;-58
2022/06/15 10:07:38;;;;;;;6.95;3.25;;;;;;;27.72;46.13;99302.84;5029125;28;20564;-57
2022/06/15 10:10:28;;;;;;;8.07;2.88;;;;;;;27.71;45.98;99307.69;5029956;28;20136;-59
2022/06/15 10:13:26;;;;;;;7.80;2.92;;;;;;;27.67;45.97;99304.94;5076159;28;20036;-58
2022/06/15 10:16:04;;;;;;;12.23;3.05;;;;;;;27.68;45.75;99294.50;5074754;28;20070;-58
2022/06/15 10:18:43;;;;;;;8.73;3.25;;;;;;;27.75;45.44;99277.53;5081432;28;20039;-57
2022/06/15 10:21:20;;;;;;;9.80;2.92;;;;;;;27.77;45.35;99275.06;5079559;28;20796;-58
2022/06/15 10:24:09;;;;;;;9.35;3.10;;;;;;;27.77;45.06;99263.81;5074569;28;20044;-58
2022/06/15 10:26:40;;;;;;;8.77;3.00;;;;;;;27.72;44.79;99275.56;5073985;28;20233;-57
2022/06/15 10:29:27;;;;;;;6.85;2.58;;;;;;;27.70;44.76;99280.81;5081233;28;20040;-58
2022/06/15 10:32:10;;;;;;;7.38;2.65;;;;;;;27.74;44.75;99267.50;5080666;28;20052;-58
2022/06/15 10:34:42;;;;;;;6.45;2.65;;;;;;;27.75;44.69;99269.09;5069464;28;20534;-57
2022/06/15 10:37:19;;;;;;;5.30;2.45;;;;;;;27.78;44.58;99273.84;5082723;28;20040;-58
2022/06/15 10:39:48;;;;;;;6.72;3.20;;;;;;;27.75;44.83;99252.22;5079558;28;20044;-58
2022/06/15 10:42:23;;;;;;;12.70;3.00;;;;;;;27.74;44.78;99249.84;5080593;28;20051;-58
2022/06/15 10:45:18;;;;;;;4.03;2.30;;;;;;;27.80;44.42;99248.16;5076440;28;20046;-57
2022/06/15 10:47:52;;;;;;;7.63;2.90;;;;;;;27.85;44.09;99244.81;5081291;28;20040;-57
2022/06/15 10:50:26;;;;;;;10.13;4.32;;;;;;;27.85;44.40;99245.63;5084182;28;20568;-57
2022/06/15 10:52:57;;;;;;;10.32;5.47;;;;;;;27.86;44.27;99247.22;5081972;28;20142;-57
2022/06/15 11:04:19;;;;;;;16.42;4.00;;;;;;;27.92;44.71;99228.63;5081737;28;20063;-57
2022/06/15 11:06:49;;;;;;;9.30;4.00;;;;;;;27.89;44.58;99228.69;5080965;28;20060;-57
2022/06/15 11:09:26;;;;;;;8.25;3.50;;;;;;;27.89;44.69;99237.94;5081252;28;20040;-57
2022/06/15 11:11:52;;;;;;;5.55;3.10;;;;;;;27.88;44.63;99238.38;5082157;28;20092;-57
2022/06/15 11:14:24;;;;;;;9.25;3.40;;;;;;;27.90;44.76;99228.28;5079901;28;20036;-57
2022/06/15 11:19:50;;;;;;;10.00;3.08;;;;;;;27.95;44.53;99227.78;5084601;28;20853;-57
2022/06/15 11:22:17;;;;;;;8.68;3.10;;;;;;;27.77;43.47;99227.28;5081299;28;20048;-57
2022/06/15 11:24:50;;;;;;;11.95;3.45;;;;;;;27.61;45.77;99221.50;5079886;28;20040;-57
2022/06/15 11:27:29;;;;;;;12.57;3.60;;;;;;;27.58;46.60;99219.56;5079567;28;20051;-57
2022/06/15 11:30:03;;;;;;;18.17;3.90;;;;;;;27.52;44.83;99207.22;5078541;28;20097;-58
2022/06/15 11:33:13;;;;;;;14.00;4.22;;;;;;;27.46;46.56;99211.72;5079797;28;20423;-57
2022/06/15 11:35:54;;;;;;;8.55;2.90;;;;;;;27.45;46.84;99207.34;4994148;28;20049;-58
2022/06/15 11:38:42;;;;;;;7.32;3.13;;;;;;;27.38;46.31;99206.22;4994994;28;20552;-58
2022/06/15 11:41:26;;;;;;;10.57;3.65;;;;;;;27.36;46.99;99219.91;4999007;28;20034;-57
2022/06/15 11:43:54;;;;;;;9.40;2.95;;;;;;;27.32;46.36;99210.72;4998729;28;20096;-58
2022/06/15 11:46:50;;;;;;;10.45;3.17;;;;;;;27.23;47.82;99216.09;4991321;28;20049;-57
2022/06/15 11:49:39;;;;;;;6.03;2.55;;;;;;;27.27;47.89;99205.56;4980258;28;20096;-57
2022/06/15 11:52:20;;;;;;;9.48;3.38;;;;;;;27.30;47.08;99207.56;4998018;28;20132;-57
2022/06/15 11:55:20;;;;;;;7.00;2.80;;;;;;;27.23;47.86;99204.06;4997166;28;20564;-57
2022/06/15 11:58:02;;;;;;;5.10;2.72;;;;;;;27.22;48.08;99216.47;4999528;28;20544;-57
2022/06/15 12:00:48;;;;;;;7.53;2.60;;;;;;;27.27;48.02;99208.38;4992152;28;20050;-57
2022/06/15 12:03:32;;;;;;;8.15;2.70;;;;;;;27.19;47.74;99214.53;4991566;28;20042;-55
2022/06/15 12:06:21;;;;;;;5.43;2.22;;;;;;;27.17;49.04;99211.38;4986514;28;20064;-57
2022/06/15 12:09:24;;;;;;;6.78;2.65;;;;;;;27.25;48.86;99212.84;4991579;28;20069;-58